sensor_id;sensor_type;location;lat;lon;timestamp;P1;durP1;ratioP1;P2;durP2;ratioP2
21999;SDS011;11164;48.818;2.322;2023-07-22T00:01:31;6.07;;;3.25;;
21999;SDS011;11164;48.818;2.322;2023-07-22T00:03:57;7.05;;;3.13;;
21999;SDS011;11164;48.818;2.322;2023-07-22T00:06:22;8.43;;;3.17;;
21999;SDS011;11164;48.818;2.322;2023-07-22T00:08:49;6.30;;;3.10;;
21999;SDS011;11164;48.818;2.322;2023-07-22T00:11:14;5.75;;;3.20;;
21999;SDS011;11164;48.818;2.322;2023-07-22T00:13:40;6.72;;;3.10;;
21999;SDS011;11164;48.818;2.322;2023-07-22T00:16:05;6.15;;;3.50;;
21999;SDS011;11164;48.818;2.322;2023-07-22T00:18:33;6.43;;;3.00;;
21999;SDS011;11164;48.818;2.322;2023-07-22T00:20:59;5.43;;;3.17;;
21999;SDS011;11164;48.818;2.322;2023-07-22T00:23:24;6.13;;;3.58;;
21999;SDS011;11164;48.818;2.322;2023-07-22T00:25:50;7.88;;;3.42;;
21999;SDS011;11164;48.818;2.322;2023-07-22T00:28:16;5.47;;;3.10;;
21999;SDS011;11164;48.818;2.322;2023-07-22T00:30:41;6.25;;;3.50;;
21999;SDS011;11164;48.818;2.322;2023-07-22T00:33:07;7.97;;;3.60;;
21999;SDS011;11164;48.818;2.322;2023-07-22T00:35:33;9.55;;;3.78;;
21999;SDS011;11164;48.818;2.322;2023-07-22T00:37:59;9.18;;;4.03;;
21999;SDS011;11164;48.818;2.322;2023-07-22T00:40:25;8.10;;;3.45;;
21999;SDS011;11164;48.818;2.322;2023-07-22T00:42:50;7.13;;;3.40;;
21999;SDS011;11164;48.818;2.322;2023-07-22T00:45:16;6.65;;;3.60;;
21999;SDS011;11164;48.818;2.322;2023-07-22T00:47:41;7.78;;;3.33;;
21999;SDS011;11164;48.818;2.322;2023-07-22T00:50:08;7.55;;;3.58;;
21999;SDS011;11164;48.818;2.322;2023-07-22T00:52:33;9.10;;;3.55;;
21999;SDS011;11164;48.818;2.322;2023-07-22T00:54:59;6.30;;;3.30;;
21999;SDS011;11164;48.818;2.322;2023-07-22T00:57:25;12.00;;;3.65;;
21999;SDS011;11164;48.818;2.322;2023-07-22T00:59:50;8.60;;;3.78;;
21999;SDS011;11164;48.818;2.322;2023-07-22T01:02:16;6.70;;;3.30;;
21999;SDS011;11164;48.818;2.322;2023-07-22T01:04:43;6.55;;;3.28;;
21999;SDS011;11164;48.818;2.322;2023-07-22T01:07:08;6.43;;;3.42;;
21999;SDS011;11164;48.818;2.322;2023-07-22T01:09:35;6.68;;;3.53;;
21999;SDS011;11164;48.818;2.322;2023-07-22T01:12:05;10.30;;;3.65;;
21999;SDS011;11164;48.818;2.322;2023-07-22T01:14:34;7.15;;;3.45;;
21999;SDS011;11164;48.818;2.322;2023-07-22T01:17:07;7.28;;;3.75;;
21999;SDS011;11164;48.818;2.322;2023-07-22T01:19:34;7.50;;;3.90;;
21999;SDS011;11164;48.818;2.322;2023-07-22T01:22:00;7.00;;;3.88;;
21999;SDS011;11164;48.818;2.322;2023-07-22T01:24:30;6.38;;;3.40;;
21999;SDS011;11164;48.818;2.322;2023-07-22T01:26:56;7.43;;;3.08;;
21999;SDS011;11164;48.818;2.322;2023-07-22T01:29:23;8.00;;;3.60;;
21999;SDS011;11164;48.818;2.322;2023-07-22T01:31:50;6.85;;;3.45;;
21999;SDS011;11164;48.818;2.322;2023-07-22T01:34:16;6.70;;;3.45;;
21999;SDS011;11164;48.818;2.322;2023-07-22T01:36:42;7.20;;;3.72;;
21999;SDS011;11164;48.818;2.322;2023-07-22T01:39:08;6.88;;;3.80;;
21999;SDS011;11164;48.818;2.322;2023-07-22T01:41:33;5.90;;;3.60;;
21999;SDS011;11164;48.818;2.322;2023-07-22T01:43:59;7.13;;;3.72;;
21999;SDS011;11164;48.818;2.322;2023-07-22T01:46:24;6.90;;;3.88;;
21999;SDS011;11164;48.818;2.322;2023-07-22T01:48:50;6.97;;;3.70;;
21999;SDS011;11164;48.818;2.322;2023-07-22T01:51:15;8.15;;;3.78;;
21999;SDS011;11164;48.818;2.322;2023-07-22T01:53:41;8.55;;;3.85;;
21999;SDS011;11164;48.818;2.322;2023-07-22T01:56:06;10.23;;;3.88;;
21999;SDS011;11164;48.818;2.322;2023-07-22T01:58:32;6.07;;;3.42;;
21999;SDS011;11164;48.818;2.322;2023-07-22T02:00:57;6.80;;;3.83;;
21999;SDS011;11164;48.818;2.322;2023-07-22T02:03:23;10.32;;;3.80;;
21999;SDS011;11164;48.818;2.322;2023-07-22T02:05:48;8.52;;;3.78;;
21999;SDS011;11164;48.818;2.322;2023-07-22T02:08:15;8.75;;;3.90;;
21999;SDS011;11164;48.818;2.322;2023-07-22T02:10:40;6.90;;;3.60;;
21999;SDS011;11164;48.818;2.322;2023-07-22T02:13:05;7.05;;;3.60;;
21999;SDS011;11164;48.818;2.322;2023-07-22T02:15:32;8.85;;;4.10;;
21999;SDS011;11164;48.818;2.322;2023-07-22T02:17:57;8.68;;;4.07;;
21999;SDS011;11164;48.818;2.322;2023-07-22T02:20:23;8.00;;;3.72;;
21999;SDS011;11164;48.818;2.322;2023-07-22T02:22:51;6.22;;;3.30;;
21999;SDS011;11164;48.818;2.322;2023-07-22T02:25:17;7.47;;;3.67;;
21999;SDS011;11164;48.818;2.322;2023-07-22T02:27:42;6.32;;;3.67;;
21999;SDS011;11164;48.818;2.322;2023-07-22T02:30:08;6.60;;;3.55;;
21999;SDS011;11164;48.818;2.322;2023-07-22T02:32:40;7.95;;;3.85;;
21999;SDS011;11164;48.818;2.322;2023-07-22T02:35:06;6.40;;;3.70;;
21999;SDS011;11164;48.818;2.322;2023-07-22T02:37:33;8.63;;;3.72;;
21999;SDS011;11164;48.818;2.322;2023-07-22T02:39:59;8.13;;;3.90;;
21999;SDS011;11164;48.818;2.322;2023-07-22T02:42:24;6.63;;;3.92;;
21999;SDS011;11164;48.818;2.322;2023-07-22T02:44:49;7.45;;;3.40;;
21999;SDS011;11164;48.818;2.322;2023-07-22T02:47:15;9.35;;;3.75;;
21999;SDS011;11164;48.818;2.322;2023-07-22T02:49:40;7.18;;;3.63;;
21999;SDS011;11164;48.818;2.322;2023-07-22T02:52:05;11.25;;;3.97;;
21999;SDS011;11164;48.818;2.322;2023-07-22T02:54:31;6.78;;;3.55;;
21999;SDS011;11164;48.818;2.322;2023-07-22T02:56:57;7.60;;;4.28;;
21999;SDS011;11164;48.818;2.322;2023-07-22T02:59:22;6.65;;;3.45;;
21999;SDS011;11164;48.818;2.322;2023-07-22T03:01:49;8.18;;;3.78;;
21999;SDS011;11164;48.818;2.322;2023-07-22T03:04:14;7.43;;;3.45;;
21999;SDS011;11164;48.818;2.322;2023-07-22T03:06:40;6.80;;;3.50;;
21999;SDS011;11164;48.818;2.322;2023-07-22T03:09:07;7.82;;;3.85;;
21999;SDS011;11164;48.818;2.322;2023-07-22T03:11:32;8.55;;;3.80;;
21999;SDS011;11164;48.818;2.322;2023-07-22T03:13:58;5.60;;;3.33;;
21999;SDS011;11164;48.818;2.322;2023-07-22T03:16:23;7.32;;;3.70;;
21999;SDS011;11164;48.818;2.322;2023-07-22T03:18:49;5.95;;;3.30;;
21999;SDS011;11164;48.818;2.322;2023-07-22T03:21:14;6.45;;;3.90;;
21999;SDS011;11164;48.818;2.322;2023-07-22T03:23:40;7.38;;;3.63;;
21999;SDS011;11164;48.818;2.322;2023-07-22T03:26:05;6.88;;;3.78;;
21999;SDS011;11164;48.818;2.322;2023-07-22T03:28:30;7.53;;;3.70;;
21999;SDS011;11164;48.818;2.322;2023-07-22T03:30:56;8.05;;;4.00;;
21999;SDS011;11164;48.818;2.322;2023-07-22T03:33:21;8.13;;;4.15;;
21999;SDS011;11164;48.818;2.322;2023-07-22T03:35:47;9.27;;;4.05;;
21999;SDS011;11164;48.818;2.322;2023-07-22T03:38:12;9.02;;;4.03;;
21999;SDS011;11164;48.818;2.322;2023-07-22T03:40:37;8.82;;;3.90;;
21999;SDS011;11164;48.818;2.322;2023-07-22T03:43:03;6.93;;;3.70;;
21999;SDS011;11164;48.818;2.322;2023-07-22T03:45:28;6.93;;;3.70;;
21999;SDS011;11164;48.818;2.322;2023-07-22T03:47:57;8.13;;;3.88;;
21999;SDS011;11164;48.818;2.322;2023-07-22T03:50:25;7.75;;;4.00;;
21999;SDS011;11164;48.818;2.322;2023-07-22T03:52:51;6.85;;;3.88;;
21999;SDS011;11164;48.818;2.322;2023-07-22T03:55:16;8.43;;;4.20;;
21999;SDS011;11164;48.818;2.322;2023-07-22T03:57:41;7.20;;;3.75;;
21999;SDS011;11164;48.818;2.322;2023-07-22T04:00:07;9.18;;;4.13;;
21999;SDS011;11164;48.818;2.322;2023-07-22T04:02:35;6.85;;;3.80;;
21999;SDS011;11164;48.818;2.322;2023-07-22T04:05:01;8.63;;;4.05;;
21999;SDS011;11164;48.818;2.322;2023-07-22T04:07:26;8.85;;;4.40;;
21999;SDS011;11164;48.818;2.322;2023-07-22T04:09:51;10.13;;;4.68;;
21999;SDS011;11164;48.818;2.322;2023-07-22T04:12:17;7.53;;;4.30;;
21999;SDS011;11164;48.818;2.322;2023-07-22T04:14:42;7.82;;;4.15;;
21999;SDS011;11164;48.818;2.322;2023-07-22T04:17:07;8.30;;;4.47;;
21999;SDS011;11164;48.818;2.322;2023-07-22T04:19:33;7.88;;;4.20;;
21999;SDS011;11164;48.818;2.322;2023-07-22T04:21:59;6.93;;;4.18;;
21999;SDS011;11164;48.818;2.322;2023-07-22T04:24:29;8.30;;;4.32;;
21999;SDS011;11164;48.818;2.322;2023-07-22T04:26:57;7.55;;;4.30;;
21999;SDS011;11164;48.818;2.322;2023-07-22T04:29:23;8.93;;;4.10;;
21999;SDS011;11164;48.818;2.322;2023-07-22T04:31:48;10.15;;;4.53;;
21999;SDS011;11164;48.818;2.322;2023-07-22T04:34:13;7.93;;;4.25;;
21999;SDS011;11164;48.818;2.322;2023-07-22T04:36:39;7.75;;;4.25;;
21999;SDS011;11164;48.818;2.322;2023-07-22T04:39:04;7.15;;;4.38;;
21999;SDS011;11164;48.818;2.322;2023-07-22T04:41:33;7.47;;;4.35;;
21999;SDS011;11164;48.818;2.322;2023-07-22T04:44:00;7.97;;;4.35;;
21999;SDS011;11164;48.818;2.322;2023-07-22T04:46:25;10.80;;;4.72;;
21999;SDS011;11164;48.818;2.322;2023-07-22T04:48:53;11.43;;;5.03;;
21999;SDS011;11164;48.818;2.322;2023-07-22T04:51:19;8.82;;;4.68;;
21999;SDS011;11164;48.818;2.322;2023-07-22T04:53:44;9.40;;;4.55;;
21999;SDS011;11164;48.818;2.322;2023-07-22T04:56:10;10.45;;;5.03;;
21999;SDS011;11164;48.818;2.322;2023-07-22T04:58:35;8.00;;;4.40;;
21999;SDS011;11164;48.818;2.322;2023-07-22T05:01:00;8.52;;;4.68;;
21999;SDS011;11164;48.818;2.322;2023-07-22T05:03:26;9.10;;;4.60;;
21999;SDS011;11164;48.818;2.322;2023-07-22T05:05:51;7.93;;;4.50;;
21999;SDS011;11164;48.818;2.322;2023-07-22T05:08:17;9.75;;;4.90;;
21999;SDS011;11164;48.818;2.322;2023-07-22T05:10:42;9.82;;;5.03;;
21999;SDS011;11164;48.818;2.322;2023-07-22T05:13:07;10.40;;;4.28;;
21999;SDS011;11164;48.818;2.322;2023-07-22T05:15:33;7.47;;;4.45;;
21999;SDS011;11164;48.818;2.322;2023-07-22T05:17:58;7.45;;;3.78;;
21999;SDS011;11164;48.818;2.322;2023-07-22T05:20:24;8.20;;;4.60;;
21999;SDS011;11164;48.818;2.322;2023-07-22T05:22:49;8.45;;;4.60;;
21999;SDS011;11164;48.818;2.322;2023-07-22T05:25:14;7.57;;;4.53;;
21999;SDS011;11164;48.818;2.322;2023-07-22T05:27:40;7.82;;;4.82;;
21999;SDS011;11164;48.818;2.322;2023-07-22T05:30:06;8.23;;;4.70;;
21999;SDS011;11164;48.818;2.322;2023-07-22T05:32:32;10.25;;;4.97;;
21999;SDS011;11164;48.818;2.322;2023-07-22T05:34:57;8.20;;;4.15;;
21999;SDS011;11164;48.818;2.322;2023-07-22T05:37:23;7.13;;;4.30;;
21999;SDS011;11164;48.818;2.322;2023-07-22T05:39:49;8.70;;;4.47;;
21999;SDS011;11164;48.818;2.322;2023-07-22T05:42:14;7.50;;;4.38;;
21999;SDS011;11164;48.818;2.322;2023-07-22T05:44:39;6.70;;;3.88;;
21999;SDS011;11164;48.818;2.322;2023-07-22T05:47:05;9.23;;;4.18;;
21999;SDS011;11164;48.818;2.322;2023-07-22T05:49:30;12.65;;;4.68;;
21999;SDS011;11164;48.818;2.322;2023-07-22T05:51:56;8.02;;;4.10;;
21999;SDS011;11164;48.818;2.322;2023-07-22T05:54:21;7.07;;;4.13;;
21999;SDS011;11164;48.818;2.322;2023-07-22T05:56:47;8.00;;;4.25;;
21999;SDS011;11164;48.818;2.322;2023-07-22T05:59:12;7.95;;;3.97;;
21999;SDS011;11164;48.818;2.322;2023-07-22T06:01:37;8.73;;;4.40;;
21999;SDS011;11164;48.818;2.322;2023-07-22T06:04:03;8.75;;;3.80;;
21999;SDS011;11164;48.818;2.322;2023-07-22T06:06:29;7.65;;;3.90;;
21999;SDS011;11164;48.818;2.322;2023-07-22T06:08:55;8.55;;;4.35;;
21999;SDS011;11164;48.818;2.322;2023-07-22T06:11:20;8.80;;;4.28;;
21999;SDS011;11164;48.818;2.322;2023-07-22T06:13:46;8.50;;;4.00;;
21999;SDS011;11164;48.818;2.322;2023-07-22T06:16:11;9.45;;;4.10;;
21999;SDS011;11164;48.818;2.322;2023-07-22T06:18:36;8.80;;;4.00;;
21999;SDS011;11164;48.818;2.322;2023-07-22T06:21:02;7.75;;;4.32;;
21999;SDS011;11164;48.818;2.322;2023-07-22T06:23:27;8.27;;;3.95;;
21999;SDS011;11164;48.818;2.322;2023-07-22T06:25:53;9.13;;;4.53;;
21999;SDS011;11164;48.818;2.322;2023-07-22T06:28:18;20.90;;;4.97;;
21999;SDS011;11164;48.818;2.322;2023-07-22T06:30:43;7.10;;;3.92;;
21999;SDS011;11164;48.818;2.322;2023-07-22T06:33:09;9.57;;;4.40;;
21999;SDS011;11164;48.818;2.322;2023-07-22T06:35:34;8.23;;;4.45;;
21999;SDS011;11164;48.818;2.322;2023-07-22T06:37:59;8.48;;;4.65;;
21999;SDS011;11164;48.818;2.322;2023-07-22T06:40:25;8.60;;;4.60;;
21999;SDS011;11164;48.818;2.322;2023-07-22T06:42:50;7.80;;;4.88;;
21999;SDS011;11164;48.818;2.322;2023-07-22T06:45:15;10.85;;;4.75;;
21999;SDS011;11164;48.818;2.322;2023-07-22T06:47:41;10.18;;;4.75;;
21999;SDS011;11164;48.818;2.322;2023-07-22T06:50:06;11.30;;;4.97;;
21999;SDS011;11164;48.818;2.322;2023-07-22T06:52:32;9.35;;;5.00;;
21999;SDS011;11164;48.818;2.322;2023-07-22T06:54:58;8.55;;;4.40;;
21999;SDS011;11164;48.818;2.322;2023-07-22T06:57:23;10.32;;;5.07;;
21999;SDS011;11164;48.818;2.322;2023-07-22T06:59:51;9.80;;;4.68;;
21999;SDS011;11164;48.818;2.322;2023-07-22T07:02:18;8.80;;;4.78;;
21999;SDS011;11164;48.818;2.322;2023-07-22T07:04:44;8.25;;;4.85;;
21999;SDS011;11164;48.818;2.322;2023-07-22T07:07:10;9.48;;;5.40;;
21999;SDS011;11164;48.818;2.322;2023-07-22T07:09:36;9.15;;;4.60;;
21999;SDS011;11164;48.818;2.322;2023-07-22T07:12:01;9.30;;;4.40;;
21999;SDS011;11164;48.818;2.322;2023-07-22T07:14:27;8.30;;;4.90;;
21999;SDS011;11164;48.818;2.322;2023-07-22T07:16:53;11.98;;;4.70;;
21999;SDS011;11164;48.818;2.322;2023-07-22T07:19:18;11.27;;;4.70;;
21999;SDS011;11164;48.818;2.322;2023-07-22T07:21:43;8.10;;;4.55;;
21999;SDS011;11164;48.818;2.322;2023-07-22T07:24:09;8.43;;;4.80;;
21999;SDS011;11164;48.818;2.322;2023-07-22T07:26:34;9.88;;;4.35;;
21999;SDS011;11164;48.818;2.322;2023-07-22T07:28:59;9.10;;;3.92;;
21999;SDS011;11164;48.818;2.322;2023-07-22T07:31:25;7.13;;;4.22;;
21999;SDS011;11164;48.818;2.322;2023-07-22T07:33:50;9.52;;;4.10;;
21999;SDS011;11164;48.818;2.322;2023-07-22T07:36:16;6.78;;;3.78;;
21999;SDS011;11164;48.818;2.322;2023-07-22T07:38:41;7.50;;;4.05;;
21999;SDS011;11164;48.818;2.322;2023-07-22T07:41:07;6.85;;;4.07;;
21999;SDS011;11164;48.818;2.322;2023-07-22T07:43:37;9.13;;;4.40;;
21999;SDS011;11164;48.818;2.322;2023-07-22T07:46:14;7.40;;;4.07;;
21999;SDS011;11164;48.818;2.322;2023-07-22T07:48:48;10.52;;;4.68;;
21999;SDS011;11164;48.818;2.322;2023-07-22T07:51:26;7.15;;;4.32;;
21999;SDS011;11164;48.818;2.322;2023-07-22T07:53:52;8.00;;;4.55;;
21999;SDS011;11164;48.818;2.322;2023-07-22T07:56:18;8.45;;;4.80;;
21999;SDS011;11164;48.818;2.322;2023-07-22T07:58:45;7.65;;;4.90;;
21999;SDS011;11164;48.818;2.322;2023-07-22T08:01:12;10.88;;;4.57;;
21999;SDS011;11164;48.818;2.322;2023-07-22T08:03:38;8.75;;;4.90;;
21999;SDS011;11164;48.818;2.322;2023-07-22T08:06:05;8.88;;;4.82;;
21999;SDS011;11164;48.818;2.322;2023-07-22T08:08:31;14.23;;;4.88;;
21999;SDS011;11164;48.818;2.322;2023-07-22T08:11:18;6.63;;;4.32;;
21999;SDS011;11164;48.818;2.322;2023-07-22T08:13:44;7.60;;;4.50;;
21999;SDS011;11164;48.818;2.322;2023-07-22T08:16:10;8.90;;;4.43;;
21999;SDS011;11164;48.818;2.322;2023-07-22T08:18:38;6.97;;;4.60;;
21999;SDS011;11164;48.818;2.322;2023-07-22T08:21:04;8.45;;;4.50;;
21999;SDS011;11164;48.818;2.322;2023-07-22T08:23:34;11.82;;;3.97;;
21999;SDS011;11164;48.818;2.322;2023-07-22T08:25:59;9.05;;;6.45;;
21999;SDS011;11164;48.818;2.322;2023-07-22T08:28:25;7.50;;;4.60;;
21999;SDS011;11164;48.818;2.322;2023-07-22T08:30:53;8.05;;;4.50;;
21999;SDS011;11164;48.818;2.322;2023-07-22T08:33:21;8.13;;;4.65;;
21999;SDS011;11164;48.818;2.322;2023-07-22T08:35:47;10.45;;;4.57;;
21999;SDS011;11164;48.818;2.322;2023-07-22T08:38:13;8.88;;;4.15;;
21999;SDS011;11164;48.818;2.322;2023-07-22T08:40:39;11.45;;;4.47;;
21999;SDS011;11164;48.818;2.322;2023-07-22T08:43:06;7.70;;;4.25;;
21999;SDS011;11164;48.818;2.322;2023-07-22T08:45:34;7.40;;;4.28;;
21999;SDS011;11164;48.818;2.322;2023-07-22T08:48:04;7.78;;;4.40;;
21999;SDS011;11164;48.818;2.322;2023-07-22T08:53:29;7.25;;;4.30;;
21999;SDS011;11164;48.818;2.322;2023-07-22T08:55:55;7.25;;;3.72;;
21999;SDS011;11164;48.818;2.322;2023-07-22T08:58:21;7.00;;;3.80;;
21999;SDS011;11164;48.818;2.322;2023-07-22T09:00:47;6.47;;;3.70;;
21999;SDS011;11164;48.818;2.322;2023-07-22T09:03:13;8.77;;;3.72;;
21999;SDS011;11164;48.818;2.322;2023-07-22T09:05:39;6.88;;;3.53;;
21999;SDS011;11164;48.818;2.322;2023-07-22T09:08:06;8.88;;;3.90;;
21999;SDS011;11164;48.818;2.322;2023-07-22T09:10:33;7.05;;;4.18;;
21999;SDS011;11164;48.818;2.322;2023-07-22T09:13:00;7.20;;;4.13;;
21999;SDS011;11164;48.818;2.322;2023-07-22T09:15:27;7.13;;;3.55;;
21999;SDS011;11164;48.818;2.322;2023-07-22T09:17:52;6.03;;;3.92;;
21999;SDS011;11164;48.818;2.322;2023-07-22T09:20:19;9.88;;;3.83;;
21999;SDS011;11164;48.818;2.322;2023-07-22T09:22:48;8.35;;;3.55;;
21999;SDS011;11164;48.818;2.322;2023-07-22T09:25:17;8.13;;;3.58;;
21999;SDS011;11164;48.818;2.322;2023-07-22T09:27:45;6.43;;;3.17;;
21999;SDS011;11164;48.818;2.322;2023-07-22T09:30:27;7.65;;;3.70;;
21999;SDS011;11164;48.818;2.322;2023-07-22T09:32:54;5.97;;;3.50;;
21999;SDS011;11164;48.818;2.322;2023-07-22T09:35:28;7.93;;;3.45;;
21999;SDS011;11164;48.818;2.322;2023-07-22T09:37:55;7.40;;;3.60;;
21999;SDS011;11164;48.818;2.322;2023-07-22T09:40:25;6.05;;;3.60;;
21999;SDS011;11164;48.818;2.322;2023-07-22T09:42:55;6.28;;;3.72;;
21999;SDS011;11164;48.818;2.322;2023-07-22T09:45:23;5.78;;;2.67;;
21999;SDS011;11164;48.818;2.322;2023-07-22T09:47:49;5.90;;;3.28;;
21999;SDS011;11164;48.818;2.322;2023-07-22T09:50:17;10.35;;;3.70;;
21999;SDS011;11164;48.818;2.322;2023-07-22T09:52:47;5.90;;;3.22;;
21999;SDS011;11164;48.818;2.322;2023-07-22T09:55:23;6.15;;;3.55;;
21999;SDS011;11164;48.818;2.322;2023-07-22T09:57:55;6.07;;;3.53;;
21999;SDS011;11164;48.818;2.322;2023-07-22T10:00:23;6.90;;;3.10;;
21999;SDS011;11164;48.818;2.322;2023-07-22T10:02:51;5.95;;;3.45;;
21999;SDS011;11164;48.818;2.322;2023-07-22T10:05:17;9.50;;;3.42;;
21999;SDS011;11164;48.818;2.322;2023-07-22T10:07:45;9.18;;;3.75;;
21999;SDS011;11164;48.818;2.322;2023-07-22T10:10:12;6.00;;;3.67;;
21999;SDS011;11164;48.818;2.322;2023-07-22T10:12:41;6.72;;;3.40;;
21999;SDS011;11164;48.818;2.322;2023-07-22T10:15:08;7.72;;;3.63;;
21999;SDS011;11164;48.818;2.322;2023-07-22T10:17:35;6.68;;;3.40;;
21999;SDS011;11164;48.818;2.322;2023-07-22T10:20:01;6.40;;;3.50;;
21999;SDS011;11164;48.818;2.322;2023-07-22T10:22:32;6.72;;;3.30;;
21999;SDS011;11164;48.818;2.322;2023-07-22T10:24:59;6.88;;;3.60;;
21999;SDS011;11164;48.818;2.322;2023-07-22T10:27:26;8.40;;;3.60;;
21999;SDS011;11164;48.818;2.322;2023-07-22T10:29:53;7.50;;;3.28;;
21999;SDS011;11164;48.818;2.322;2023-07-22T10:32:19;5.85;;;2.97;;
21999;SDS011;11164;48.818;2.322;2023-07-22T10:34:45;6.82;;;3.53;;
21999;SDS011;11164;48.818;2.322;2023-07-22T10:37:10;5.25;;;2.97;;
21999;SDS011;11164;48.818;2.322;2023-07-22T10:39:36;5.55;;;3.20;;
21999;SDS011;11164;48.818;2.322;2023-07-22T10:42:04;7.40;;;3.28;;
21999;SDS011;11164;48.818;2.322;2023-07-22T10:44:37;6.65;;;3.83;;
21999;SDS011;11164;48.818;2.322;2023-07-22T10:47:03;7.47;;;3.30;;
21999;SDS011;11164;48.818;2.322;2023-07-22T10:49:45;5.50;;;3.47;;
21999;SDS011;11164;48.818;2.322;2023-07-22T10:52:13;7.28;;;3.50;;
21999;SDS011;11164;48.818;2.322;2023-07-22T10:54:41;6.45;;;3.28;;
21999;SDS011;11164;48.818;2.322;2023-07-22T10:59:47;7.22;;;2.92;;
21999;SDS011;11164;48.818;2.322;2023-07-22T11:04:50;4.68;;;2.65;;
21999;SDS011;11164;48.818;2.322;2023-07-22T11:07:15;5.57;;;2.80;;
21999;SDS011;11164;48.818;2.322;2023-07-22T11:09:54;6.05;;;3.13;;
21999;SDS011;11164;48.818;2.322;2023-07-22T11:12:19;6.78;;;2.63;;
21999;SDS011;11164;48.818;2.322;2023-07-22T11:17:17;4.70;;;2.58;;
21999;SDS011;11164;48.818;2.322;2023-07-22T11:19:52;6.43;;;2.92;;
21999;SDS011;11164;48.818;2.322;2023-07-22T11:22:17;6.15;;;3.15;;
21999;SDS011;11164;48.818;2.322;2023-07-22T11:24:43;5.55;;;2.60;;
21999;SDS011;11164;48.818;2.322;2023-07-22T11:27:08;5.40;;;2.80;;
21999;SDS011;11164;48.818;2.322;2023-07-22T11:29:34;6.75;;;2.83;;
21999;SDS011;11164;48.818;2.322;2023-07-22T11:32:00;7.88;;;3.05;;
21999;SDS011;11164;48.818;2.322;2023-07-22T11:34:27;4.88;;;2.55;;
21999;SDS011;11164;48.818;2.322;2023-07-22T11:36:53;5.75;;;2.55;;
21999;SDS011;11164;48.818;2.322;2023-07-22T11:39:20;5.88;;;3.13;;
21999;SDS011;11164;48.818;2.322;2023-07-22T11:41:48;4.38;;;2.40;;
21999;SDS011;11164;48.818;2.322;2023-07-22T11:44:19;4.85;;;2.90;;
21999;SDS011;11164;48.818;2.322;2023-07-22T11:47:01;6.07;;;2.80;;
21999;SDS011;11164;48.818;2.322;2023-07-22T11:49:33;5.03;;;2.90;;
21999;SDS011;11164;48.818;2.322;2023-07-22T11:52:04;5.13;;;2.72;;
21999;SDS011;11164;48.818;2.322;2023-07-22T11:54:32;6.57;;;2.60;;
21999;SDS011;11164;48.818;2.322;2023-07-22T11:57:09;5.43;;;3.08;;
21999;SDS011;11164;48.818;2.322;2023-07-22T11:59:45;7.40;;;2.75;;
21999;SDS011;11164;48.818;2.322;2023-07-22T12:02:15;5.43;;;2.80;;
21999;SDS011;11164;48.818;2.322;2023-07-22T12:04:42;4.40;;;2.40;;
21999;SDS011;11164;48.818;2.322;2023-07-22T12:07:24;4.97;;;2.47;;
21999;SDS011;11164;48.818;2.322;2023-07-22T12:10:03;4.43;;;2.40;;
21999;SDS011;11164;48.818;2.322;2023-07-22T12:12:33;4.65;;;2.28;;
21999;SDS011;11164;48.818;2.322;2023-07-22T12:15:18;4.65;;;2.78;;
21999;SDS011;11164;48.818;2.322;2023-07-22T12:17:46;4.65;;;2.55;;
21999;SDS011;11164;48.818;2.322;2023-07-22T12:22:48;5.50;;;2.63;;
21999;SDS011;11164;48.818;2.322;2023-07-22T12:25:13;5.22;;;2.33;;
21999;SDS011;11164;48.818;2.322;2023-07-22T12:27:39;7.93;;;2.65;;
21999;SDS011;11164;48.818;2.322;2023-07-22T12:30:04;4.95;;;2.50;;
21999;SDS011;11164;48.818;2.322;2023-07-22T12:32:31;4.32;;;2.40;;
21999;SDS011;11164;48.818;2.322;2023-07-22T12:34:57;6.35;;;2.60;;
21999;SDS011;11164;48.818;2.322;2023-07-22T12:37:22;6.22;;;2.83;;
21999;SDS011;11164;48.818;2.322;2023-07-22T12:39:48;5.90;;;2.80;;
21999;SDS011;11164;48.818;2.322;2023-07-22T12:42:14;4.60;;;2.40;;
21999;SDS011;11164;48.818;2.322;2023-07-22T12:44:39;4.47;;;2.20;;
21999;SDS011;11164;48.818;2.322;2023-07-22T12:47:04;4.60;;;2.40;;
21999;SDS011;11164;48.818;2.322;2023-07-22T12:49:30;5.03;;;2.63;;
21999;SDS011;11164;48.818;2.322;2023-07-22T12:51:56;6.07;;;2.47;;
21999;SDS011;11164;48.818;2.322;2023-07-22T12:54:28;5.07;;;2.20;;
21999;SDS011;11164;48.818;2.322;2023-07-22T12:56:53;4.28;;;2.22;;
21999;SDS011;11164;48.818;2.322;2023-07-22T12:59:19;5.28;;;2.63;;
21999;SDS011;11164;48.818;2.322;2023-07-22T13:01:44;5.80;;;2.70;;
21999;SDS011;11164;48.818;2.322;2023-07-22T13:04:09;5.82;;;2.50;;
21999;SDS011;11164;48.818;2.322;2023-07-22T13:06:35;3.83;;;2.30;;
21999;SDS011;11164;48.818;2.322;2023-07-22T13:09:02;4.88;;;2.38;;
21999;SDS011;11164;48.818;2.322;2023-07-22T13:11:27;6.45;;;2.40;;
21999;SDS011;11164;48.818;2.322;2023-07-22T13:13:52;4.70;;;2.30;;
21999;SDS011;11164;48.818;2.322;2023-07-22T13:16:18;6.10;;;2.60;;
21999;SDS011;11164;48.818;2.322;2023-07-22T13:18:43;4.60;;;2.40;;
21999;SDS011;11164;48.818;2.322;2023-07-22T13:21:08;5.18;;;2.40;;
21999;SDS011;11164;48.818;2.322;2023-07-22T13:23:34;4.63;;;2.67;;
21999;SDS011;11164;48.818;2.322;2023-07-22T13:26:00;5.20;;;2.35;;
21999;SDS011;11164;48.818;2.322;2023-07-22T13:28:25;4.72;;;2.72;;
21999;SDS011;11164;48.818;2.322;2023-07-22T13:30:50;5.93;;;2.40;;
21999;SDS011;11164;48.818;2.322;2023-07-22T13:33:16;4.72;;;2.78;;
21999;SDS011;11164;48.818;2.322;2023-07-22T13:35:45;5.03;;;2.70;;
21999;SDS011;11164;48.818;2.322;2023-07-22T13:38:10;6.22;;;2.50;;
21999;SDS011;11164;48.818;2.322;2023-07-22T13:40:35;4.50;;;2.45;;
21999;SDS011;11164;48.818;2.322;2023-07-22T13:43:01;4.57;;;2.95;;
21999;SDS011;11164;48.818;2.322;2023-07-22T13:45:26;4.95;;;2.20;;
21999;SDS011;11164;48.818;2.322;2023-07-22T13:47:52;6.28;;;3.03;;
21999;SDS011;11164;48.818;2.322;2023-07-22T13:50:18;5.25;;;2.70;;
21999;SDS011;11164;48.818;2.322;2023-07-22T13:52:43;5.40;;;3.17;;
21999;SDS011;11164;48.818;2.322;2023-07-22T13:55:09;6.60;;;3.25;;
21999;SDS011;11164;48.818;2.322;2023-07-22T13:57:35;4.18;;;2.67;;
21999;SDS011;11164;48.818;2.322;2023-07-22T14:00:00;5.68;;;3.00;;
21999;SDS011;11164;48.818;2.322;2023-07-22T14:02:26;5.72;;;2.63;;
21999;SDS011;11164;48.818;2.322;2023-07-22T14:04:51;5.40;;;3.30;;
21999;SDS011;11164;48.818;2.322;2023-07-22T14:07:16;4.35;;;2.70;;
21999;SDS011;11164;48.818;2.322;2023-07-22T14:09:42;4.88;;;2.67;;
21999;SDS011;11164;48.818;2.322;2023-07-22T14:12:08;5.00;;;2.60;;
21999;SDS011;11164;48.818;2.322;2023-07-22T14:14:34;3.92;;;2.20;;
21999;SDS011;11164;48.818;2.322;2023-07-22T14:16:59;5.07;;;2.50;;
21999;SDS011;11164;48.818;2.322;2023-07-22T14:19:24;7.90;;;2.70;;
21999;SDS011;11164;48.818;2.322;2023-07-22T14:21:50;6.07;;;2.60;;
21999;SDS011;11164;48.818;2.322;2023-07-22T14:24:15;5.90;;;2.78;;
21999;SDS011;11164;48.818;2.322;2023-07-22T14:26:40;5.35;;;2.70;;
21999;SDS011;11164;48.818;2.322;2023-07-22T14:29:06;6.72;;;3.00;;
21999;SDS011;11164;48.818;2.322;2023-07-22T14:31:31;5.00;;;2.78;;
21999;SDS011;11164;48.818;2.322;2023-07-22T14:33:57;5.35;;;2.97;;
21999;SDS011;11164;48.818;2.322;2023-07-22T14:36:22;4.70;;;2.83;;
21999;SDS011;11164;48.818;2.322;2023-07-22T14:38:47;6.32;;;2.97;;
21999;SDS011;11164;48.818;2.322;2023-07-22T14:41:13;6.90;;;3.15;;
21999;SDS011;11164;48.818;2.322;2023-07-22T14:43:38;7.20;;;3.22;;
21999;SDS011;11164;48.818;2.322;2023-07-22T14:46:04;4.53;;;2.95;;
21999;SDS011;11164;48.818;2.322;2023-07-22T14:48:29;4.90;;;2.80;;
21999;SDS011;11164;48.818;2.322;2023-07-22T14:50:54;5.75;;;2.80;;
21999;SDS011;11164;48.818;2.322;2023-07-22T14:53:20;6.32;;;3.00;;
21999;SDS011;11164;48.818;2.322;2023-07-22T14:55:45;5.55;;;2.65;;